Time;durP1;ratioP1;P1;durP2;ratioP2;P2;SDS_P1;SDS_P2;PMS_P1;PMS_P2;Temp;Humidity;BMP_temperature;BMP_pressure;BME280_temperature;BME280_humidity;BME280_pressure;Samples;Min_cycle;Max_cycle;Signal;HPM_P1;HPM_P2
2022/06/08 00:02:03;;;;;;;1.60;1.50;;;;;;;;;;5065669;28;20458;-91
2022/06/08 00:04:30;;;;;;;1.95;1.58;;;;;;;;;;5046502;28;20385;-92
2022/06/08 00:06:56;;;;;;;1.90;1.63;;;;;;;;;;5040830;28;20384;-92
2022/06/08 00:09:22;;;;;;;2.53;1.55;;;;;;;;;;5062570;28;20387;-91
2022/06/08 00:11:48;;;;;;;2.55;1.50;;;;;;;;;;5038316;28;20440;-91
2022/06/08 00:14:15;;;;;;;1.70;1.50;;;;;;;;;;5055774;28;20870;-91
2022/06/08 00:16:41;;;;;;;1.75;1.50;;;;;;;;;;5068522;28;20510;-91
2022/06/08 00:19:07;;;;;;;3.25;1.70;;;;;;;;;;5037111;28;20865;-91
2022/06/08 00:21:33;;;;;;;2.20;1.90;;;;;;;;;;5054121;28;20863;-89
2022/06/08 00:23:59;;;;;;;2.43;2.23;;;;;;;;;;5057370;28;20387;-90
2022/06/08 00:26:25;;;;;;;3.17;2.50;;;;;;;;;;5056540;28;20391;-89
2022/06/08 00:28:52;;;;;;;4.07;2.70;;;;;;;;;;5033635;28;20462;-89
2022/06/08 00:31:18;;;;;;;3.00;2.47;;;;;;;;;;5034284;28;20391;-91
2022/06/08 00:33:44;;;;;;;3.60;2.72;;;;;;;;;;5034741;28;20479;-90
2022/06/08 00:36:10;;;;;;;2.65;2.45;;;;;;;;;;5055131;28;20409;-91
2022/06/08 00:38:36;;;;;;;2.33;2.13;;;;;;;;;;5055199;28;20373;-91
2022/06/08 00:41:31;;;;;;;3.10;2.23;;;;;;;;;;5054672;28;20374;-90
2022/06/08 00:43:58;;;;;;;3.72;2.10;;;;;;;;;;5037699;28;20455;-91
2022/06/08 00:46:24;;;;;;;4.53;1.85;;;;;;;;;;5055037;28;20416;-90
2022/06/08 00:48:53;;;;;;;2.10;1.60;;;;;;;;;;5062641;28;20390;-90
2022/06/08 00:51:19;;;;;;;2.07;1.70;;;;;;;;;;5057697;28;20379;-89
2022/06/08 00:54:11;;;;;;;2.50;1.40;;;;;;;;;;5054500;28;20385;-90
2022/06/08 00:56:39;;;;;;;5.25;1.63;;;;;;;;;;5063431;28;20416;-90
2022/06/08 00:59:06;;;;;;;2.28;1.40;;;;;;;;;;5037236;28;20855;-91
2022/06/08 01:01:32;;;;;;;2.15;1.63;;;;;;;;;;5037131;28;20385;-90
2022/06/08 01:04:08;;;;;;;1.60;1.50;;;;;;;;;;5047405;28;20428;-90
2022/06/08 01:06:34;;;;;;;1.90;1.45;;;;;;;;;;5057125;28;20396;-91
2022/06/08 01:09:00;;;;;;;3.97;1.40;;;;;;;;;;5054533;28;20395;-90
2022/06/08 01:11:26;;;;;;;1.90;1.70;;;;;;;;;;5054915;28;20940;-90
2022/06/08 01:13:53;;;;;;;1.52;1.35;;;;;;;;;;5036523;28;20386;-90
2022/06/08 01:16:19;;;;;;;2.30;1.40;;;;;;;;;;5054792;28;20496;-91
2022/06/08 01:18:46;;;;;;;1.50;1.40;;;;;;;;;;5057410;28;20382;-89
2022/06/08 01:21:21;;;;;;;1.45;1.35;;;;;;;;;;5058887;28;20430;-90
2022/06/08 01:23:48;;;;;;;1.60;1.45;;;;;;;;;;5055743;28;20476;-91
2022/06/08 01:26:32;;;;;;;1.90;1.17;;;;;;;;;;5059470;28;20382;-91
2022/06/08 01:29:06;;;;;;;2.40;1.40;;;;;;;;;;5039374;28;20374;-90
2022/06/08 01:31:35;;;;;;;1.42;1.25;;;;;;;;;;5037546;28;20443;-91
2022/06/08 01:34:19;;;;;;;2.20;1.30;;;;;;;;;;5045637;28;20410;-90
2022/06/08 01:36:58;;;;;;;2.37;1.40;;;;;;;;;;5057225;28;20420;-91
2022/06/08 01:39:42;;;;;;;2.40;2.00;;;;;;;;;;5064252;28;20371;-90
2022/06/08 01:42:11;;;;;;;1.70;1.60;;;;;;;;;;5033394;28;20378;-89
2022/06/08 01:45:28;;;;;;;2.88;1.90;;;;;;;;;;5034106;28;20375;-89
2022/06/08 01:47:33;;;;;;;4.00;2.08;;;;;;;;;;5039590;28;20501;-88
2022/06/08 01:50:07;;;;;;;1.92;1.80;;;;;;;;;;5053191;28;20377;-90
2022/06/08 01:52:45;;;;;;;2.67;2.00;;;;;;;;;;5050407;28;20415;-89
2022/06/08 01:55:11;;;;;;;3.47;1.50;;;;;;;;;;5048936;28;20421;-89
2022/06/08 01:57:58;;;;;;;1.77;1.67;;;;;;;;;;5034687;28;20751;-90
2022/06/08 02:00:26;;;;;;;1.95;1.70;;;;;;;;;;5054869;28;20865;-89
2022/06/08 02:02:57;;;;;;;1.65;1.50;;;;;;;;;;5050020;28;20383;-90
2022/06/08 02:05:29;;;;;;;1.58;1.48;;;;;;;;;;5038384;28;20373;-89
2022/06/08 02:08:03;;;;;;;3.25;1.63;;;;;;;;;;5053019;28;20439;-88
2022/06/08 02:10:36;;;;;;;2.15;1.95;;;;;;;;;;5034918;28;20421;-90
2022/06/08 02:13:17;;;;;;;3.17;2.88;;;;;;;;;;5053664;28;20418;-89
2022/06/08 02:15:46;;;;;;;4.80;3.30;;;;;;;;;;5053456;28;20412;-91
2022/06/08 02:18:42;;;;;;;5.13;4.45;;;;;;;;;;5053228;28;20377;-89
2022/06/08 02:21:11;;;;;;;4.85;4.35;;;;;;;;;;5034464;28;20402;-90
2022/06/08 02:23:45;;;;;;;6.63;4.18;;;;;;;;;;5038418;28;20461;-89
2022/06/08 02:26:15;;;;;;;4.85;4.15;;;;;;;;;;5051852;28;20396;-89
2022/06/08 02:28:44;;;;;;;5.30;3.88;;;;;;;;;;5066749;28;20372;-90
2022/06/08 02:31:14;;;;;;;3.53;3.22;;;;;;;;;;5039426;28;20377;-90
2022/06/08 02:36:30;;;;;;;2.88;2.67;;;;;;;;;;5042004;28;20404;-90
2022/06/08 02:39:16;;;;;;;2.90;2.60;;;;;;;;;;5054339;28;20450;-90
2022/06/08 02:41:44;;;;;;;3.00;2.70;;;;;;;;;;5040590;28;20378;-89
2022/06/08 02:44:13;;;;;;;3.08;2.50;;;;;;;;;;5054247;28;20388;-91
2022/06/08 02:46:44;;;;;;;3.33;2.90;;;;;;;;;;5057570;28;20378;-90
2022/06/08 02:49:10;;;;;;;3.78;2.90;;;;;;;;;;5062299;28;20769;-90
2022/06/08 02:51:36;;;;;;;3.90;3.15;;;;;;;;;;5044358;28;20400;-88
2022/06/08 02:54:07;;;;;;;3.70;3.10;;;;;;;;;;5057976;28;20404;-88
2022/06/08 02:56:36;;;;;;;3.03;2.72;;;;;;;;;;5042293;28;20485;-89
2022/06/08 02:59:08;;;;;;;3.10;2.80;;;;;;;;;;5045018;28;20877;-90
2022/06/08 03:01:47;;;;;;;4.20;2.88;;;;;;;;;;5059634;28;20388;-90
2022/06/08 03:04:26;;;;;;;2.83;2.50;;;;;;;;;;5054864;28;20874;-90
2022/06/08 03:06:59;;;;;;;3.03;2.72;;;;;;;;;;5040523;28;20473;-91
2022/06/08 03:09:26;;;;;;;3.50;3.20;;;;;;;;;;5058866;28;20374;-89
2022/06/08 03:12:04;;;;;;;4.07;3.47;;;;;;;;;;5058576;28;20378;-90
2022/06/08 03:14:31;;;;;;;4.28;3.88;;;;;;;;;;5059674;28;20854;-89
2022/06/08 03:17:02;;;;;;;5.93;4.72;;;;;;;;;;5046874;28;20420;-91
2022/06/08 03:19:30;;;;;;;7.32;4.70;;;;;;;;;;5070167;28;20463;-89
2022/06/08 03:21:56;;;;;;;5.30;3.75;;;;;;;;;;5052894;28;20380;-91
2022/06/08 03:24:23;;;;;;;4.00;3.57;;;;;;;;;;5066133;28;20380;-91
2022/06/08 03:26:52;;;;;;;6.55;3.80;;;;;;;;;;5050008;28;20456;-91
2022/06/08 03:29:18;;;;;;;6.55;4.38;;;;;;;;;;5057567;28;20377;-91
2022/06/08 03:31:44;;;;;;;5.55;5.00;;;;;;;;;;5056751;28;20382;-91
2022/06/08 03:34:10;;;;;;;5.88;5.03;;;;;;;;;;5038147;28;20377;-91
2022/06/08 03:36:36;;;;;;;5.67;5.07;;;;;;;;;;5040539;28;20965;-91
2022/06/08 03:39:02;;;;;;;5.50;5.00;;;;;;;;;;5058373;28;20389;-90
2022/06/08 03:41:28;;;;;;;5.55;5.05;;;;;;;;;;5055083;28;20949;-91
2022/06/08 03:43:54;;;;;;;5.83;5.33;;;;;;;;;;5045747;28;20380;-91
2022/06/08 03:46:20;;;;;;;5.82;5.30;;;;;;;;;;5037710;28;20457;-92
2022/06/08 03:48:46;;;;;;;5.43;4.90;;;;;;;;;;5044189;28;20386;-92
2022/06/08 03:51:14;;;;;;;5.20;4.80;;;;;;;;;;5055822;28;20374;-92
2022/06/08 03:53:46;;;;;;;5.35;4.20;;;;;;;;;;5052241;28;20762;-91
2022/06/08 03:56:13;;;;;;;3.40;3.20;;;;;;;;;;5055622;28;20408;-91
2022/06/08 03:58:39;;;;;;;4.20;3.10;;;;;;;;;;5055966;28;20386;-91
2022/06/08 04:01:05;;;;;;;3.40;3.10;;;;;;;;;;5055025;28;20877;-90
2022/06/08 04:03:31;;;;;;;3.20;3.00;;;;;;;;;;5054720;28;20401;-90
2022/06/08 04:05:58;;;;;;;3.58;3.28;;;;;;;;;;5054945;28;20381;-90
2022/06/08 04:08:24;;;;;;;3.80;3.50;;;;;;;;;;5034346;28;20405;-89
2022/06/08 04:10:50;;;;;;;3.60;3.30;;;;;;;;;;5051724;28;20417;-90
2022/06/08 04:13:17;;;;;;;3.30;3.05;;;;;;;;;;5036536;28;20469;-89
2022/06/08 04:15:43;;;;;;;3.35;3.10;;;;;;;;;;5054465;28;20404;-90
2022/06/08 04:18:12;;;;;;;4.05;2.90;;;;;;;;;;5053751;28;20495;-90
2022/06/08 04:20:39;;;;;;;3.38;3.08;;;;;;;;;;5052705;28;20637;-91
2022/06/08 04:23:05;;;;;;;3.28;3.05;;;;;;;;;;5053452;28;20376;-91
2022/06/08 04:25:31;;;;;;;3.33;3.13;;;;;;;;;;5035378;28;20732;-89
2022/06/08 04:27:57;;;;;;;2.90;2.60;;;;;;;;;;5036391;28;20395;-90
2022/06/08 04:30:23;;;;;;;3.60;2.75;;;;;;;;;;5035714;28;20390;-90
2022/06/08 04:32:50;;;;;;;3.30;2.70;;;;;;;;;;5050543;28;20383;-90
2022/06/08 04:35:17;;;;;;;3.00;2.78;;;;;;;;;;5043195;28;20434;-91
2022/06/08 04:37:43;;;;;;;2.70;2.50;;;;;;;;;;5034861;28;20863;-90
2022/06/08 04:40:10;;;;;;;2.80;2.20;;;;;;;;;;5046845;28;20911;-89
2022/06/08 04:42:36;;;;;;;2.60;2.40;;;;;;;;;;5052296;28;20765;-89
2022/06/08 04:45:03;;;;;;;2.50;2.30;;;;;;;;;;5048414;28;20389;-90
2022/06/08 04:47:29;;;;;;;2.78;2.20;;;;;;;;;;5054396;28;20419;-90
2022/06/08 04:49:55;;;;;;;2.42;2.22;;;;;;;;;;5054730;28;20389;-90
2022/06/08 04:52:21;;;;;;;2.70;2.50;;;;;;;;;;5055043;28;20386;-90
2022/06/08 04:54:48;;;;;;;2.40;2.20;;;;;;;;;;5053976;28;20395;-90
2022/06/08 04:57:14;;;;;;;2.93;2.73;;;;;;;;;;5036072;28;20372;-89
2022/06/08 04:59:40;;;;;;;2.20;2.00;;;;;;;;;;5054370;28;20716;-90
2022/06/08 05:02:06;;;;;;;3.03;2.03;;;;;;;;;;5036898;28;20393;-91
2022/06/08 05:04:33;;;;;;;2.53;2.33;;;;;;;;;;5038763;28;20408;-91
2022/06/08 05:06:59;;;;;;;2.75;2.55;;;;;;;;;;5038829;28;20384;-91
2022/06/08 05:09:25;;;;;;;2.53;2.42;;;;;;;;;;5063021;28;20421;-90
2022/06/08 05:11:51;;;;;;;2.47;2.28;;;;;;;;;;5041239;28;20391;-90
2022/06/08 05:14:17;;;;;;;3.30;3.00;;;;;;;;;;5043798;28;20385;-92
2022/06/08 05:16:43;;;;;;;2.88;2.67;;;;;;;;;;5037660;28;20499;-92
2022/06/08 05:19:10;;;;;;;3.25;3.05;;;;;;;;;;5039040;28;20894;-92
2022/06/08 05:21:36;;;;;;;3.60;3.40;;;;;;;;;;5038271;28;20400;-91
2022/06/08 05:24:03;;;;;;;3.00;2.80;;;;;;;;;;5052208;28;20382;-92
2022/06/08 05:26:29;;;;;;;2.95;2.75;;;;;;;;;;5036003;28;20386;-90
2022/06/08 05:28:55;;;;;;;3.90;3.70;;;;;;;;;;5036327;28;20413;-91
2022/06/08 05:31:21;;;;;;;4.07;3.78;;;;;;;;;;5053589;28;20377;-90
2022/06/08 05:33:47;;;;;;;3.92;3.63;;;;;;;;;;5036225;28;20386;-90
2022/06/08 05:36:16;;;;;;;4.00;3.70;;;;;;;;;;5054879;28;20897;-91
2022/06/08 05:38:42;;;;;;;3.88;3.60;;;;;;;;;;5053159;28;20437;-91
2022/06/08 05:41:08;;;;;;;3.97;3.67;;;;;;;;;;5058599;28;20382;-91
2022/06/08 05:43:34;;;;;;;4.10;3.80;;;;;;;;;;5055642;28;20388;-90
2022/06/08 05:46:00;;;;;;;4.10;3.80;;;;;;;;;;5053366;28;20400;-90
2022/06/08 05:48:27;;;;;;;4.10;3.90;;;;;;;;;;5050663;28;20385;-90
2022/06/08 05:50:53;;;;;;;4.53;4.22;;;;;;;;;;5046964;28;20380;-91
2022/06/08 05:53:19;;;;;;;4.40;4.10;;;;;;;;;;5039992;28;20391;-91
2022/06/08 05:55:45;;;;;;;5.13;4.72;;;;;;;;;;5032607;28;20926;-91
2022/06/08 05:58:12;;;;;;;4.70;4.40;;;;;;;;;;5034068;28;20383;-92
2022/06/08 06:00:39;;;;;;;4.88;4.57;;;;;;;;;;5047739;28;20502;-89
2022/06/08 06:03:07;;;;;;;5.10;4.77;;;;;;;;;;5051426;28;20501;-90
2022/06/08 06:05:37;;;;;;;4.90;4.60;;;;;;;;;;5062936;28;20378;-92
2022/06/08 06:08:04;;;;;;;4.75;4.45;;;;;;;;;;5074653;28;20449;-91
2022/06/08 06:10:32;;;;;;;5.57;5.17;;;;;;;;;;5036237;28;20541;-88
2022/06/08 06:12:58;;;;;;;6.13;5.68;;;;;;;;;;5043228;28;20438;-88
2022/06/08 06:15:24;;;;;;;5.73;5.33;;;;;;;;;;5051325;28;20482;-88
2022/06/08 06:17:51;;;;;;;5.50;5.10;;;;;;;;;;5034830;28;20494;-90
2022/06/08 06:20:17;;;;;;;6.80;6.30;;;;;;;;;;5052519;28;20376;-91
2022/06/08 06:22:43;;;;;;;6.20;5.80;;;;;;;;;;5059613;28;20383;-89
2022/06/08 06:25:10;;;;;;;6.20;5.70;;;;;;;;;;5047089;28;20378;-90
2022/06/08 06:27:36;;;;;;;6.57;6.07;;;;;;;;;;5034809;28;21036;-90
2022/06/08 06:30:04;;;;;;;9.02;8.30;;;;;;;;;;5052907;28;20439;-89
2022/06/08 06:32:32;;;;;;;9.70;7.50;;;;;;;;;;5052444;28;20377;-89
2022/06/08 06:34:59;;;;;;;10.10;9.20;;;;;;;;;;5044567;28;20390;-90
2022/06/08 06:37:26;;;;;;;10.68;9.77;;;;;;;;;;5053499;28;20386;-89
2022/06/08 06:39:52;;;;;;;10.07;9.18;;;;;;;;;;5054036;28;20401;-90
2022/06/08 06:42:19;;;;;;;9.85;9.05;;;;;;;;;;5057579;28;20381;-89
2022/06/08 06:44:46;;;;;;;10.00;9.10;;;;;;;;;;5056684;28;20862;-90
2022/06/08 06:47:12;;;;;;;10.75;9.70;;;;;;;;;;5055880;28;20377;-89
2022/06/08 06:49:38;;;;;;;12.38;11.20;;;;;;;;;;5056205;28;20373;-89
2022/06/08 06:52:05;;;;;;;12.05;10.85;;;;;;;;;;5057187;28;20400;-89
2022/06/08 06:54:31;;;;;;;9.70;8.80;;;;;;;;;;5056789;28;20489;-89
2022/06/08 06:56:58;;;;;;;10.73;9.80;;;;;;;;;;5066808;28;20403;-88
2022/06/08 06:59:24;;;;;;;10.93;9.93;;;;;;;;;;5047639;28;20381;-86
2022/06/08 07:01:50;;;;;;;11.55;10.40;;;;;;;;;;5053873;28;20753;-89
2022/06/08 07:04:18;;;;;;;11.57;10.48;;;;;;;;;;5049721;28;20492;-89
2022/06/08 07:06:44;;;;;;;10.30;9.35;;;;;;;;;;5054501;28;20468;-89
2022/06/08 07:09:12;;;;;;;10.03;9.20;;;;;;;;;;5047827;28;20582;-90
2022/06/08 07:11:41;;;;;;;9.90;9.00;;;;;;;;;;5054740;28;20390;-91
2022/06/08 07:14:09;;;;;;;11.45;10.20;;;;;;;;;;5060401;28;20467;-91
2022/06/08 07:16:35;;;;;;;10.70;9.50;;;;;;;;;;5064458;28;20401;-91
2022/06/08 07:19:02;;;;;;;10.88;9.88;;;;;;;;;;5043450;28;20373;-91
2022/06/08 07:21:28;;;;;;;11.65;10.15;;;;;;;;;;5055409;28;20481;-92
2022/06/08 07:23:55;;;;;;;11.65;10.55;;;;;;;;;;5035970;28;20386;-91
2022/06/08 07:26:24;;;;;;;11.55;10.30;;;;;;;;;;5063873;28;20467;-93
2022/06/08 07:28:50;;;;;;;10.23;9.32;;;;;;;;;;5057783;28;20403;-92
2022/06/08 07:31:17;;;;;;;10.00;8.70;;;;;;;;;;5052597;28;20410;-92
2022/06/08 07:33:43;;;;;;;9.27;8.35;;;;;;;;;;5039507;28;20418;-92
2022/06/08 07:36:09;;;;;;;8.82;7.93;;;;;;;;;;5035918;28;20417;-91
2022/06/08 07:38:35;;;;;;;9.60;8.00;;;;;;;;;;5044502;28;20743;-92
2022/06/08 07:41:01;;;;;;;7.60;6.90;;;;;;;;;;5037453;28;20880;-90
2022/06/08 07:43:27;;;;;;;6.95;6.00;;;;;;;;;;5054833;28;20385;-90
2022/06/08 07:45:53;;;;;;;6.35;5.60;;;;;;;;;;5037663;28;20732;-90
2022/06/08 07:51:07;;;;;;;7.23;5.37;;;;;;;;;;5055564;28;20369;-92
2022/06/08 07:53:34;;;;;;;5.55;5.05;;;;;;;;;;5036962;28;20456;-88
2022/06/08 07:56:00;;;;;;;5.00;4.50;;;;;;;;;;5054576;28;20436;-89
2022/06/08 07:58:26;;;;;;;6.32;4.20;;;;;;;;;;5054122;28;20385;-90
2022/06/08 08:00:53;;;;;;;4.60;4.07;;;;;;;;;;5054438;28;20370;-88
2022/06/08 08:03:20;;;;;;;4.05;3.60;;;;;;;;;;5054028;28;20413;-88
2022/06/08 08:05:46;;;;;;;4.45;3.40;;;;;;;;;;5054620;28;20743;-89
2022/06/08 08:08:17;;;;;;;5.22;4.18;;;;;;;;;;5036370;28;20385;-87
2022/06/08 08:10:43;;;;;;;5.22;4.38;;;;;;;;;;5054581;28;20442;-88
2022/06/08 08:13:09;;;;;;;5.13;4.25;;;;;;;;;;5053939;28;20457;-88
2022/06/08 08:15:35;;;;;;;5.22;4.28;;;;;;;;;;5050312;28;20410;-89
2022/06/08 08:18:01;;;;;;;4.63;4.22;;;;;;;;;;5053537;28;20476;-88
2022/06/08 08:20:28;;;;;;;4.10;3.50;;;;;;;;;;5053701;28;20385;-89
2022/06/08 08:22:55;;;;;;;3.50;3.20;;;;;;;;;;5053834;28;20393;-89
2022/06/08 08:25:22;;;;;;;6.50;3.63;;;;;;;;;;5053428;28;20989;-89
2022/06/08 08:27:49;;;;;;;6.45;3.85;;;;;;;;;;5036582;28;20387;-88
2022/06/08 08:30:16;;;;;;;4.07;3.33;;;;;;;;;;5034835;28;20465;-89
2022/06/08 08:32:42;;;;;;;4.75;3.22;;;;;;;;;;5035598;28;20418;-89
2022/06/08 08:35:09;;;;;;;3.40;3.00;;;;;;;;;;5045528;28;20447;-89
2022/06/08 08:37:35;;;;;;;3.53;3.00;;;;;;;;;;5036871;28;20449;-86
2022/06/08 08:40:01;;;;;;;3.33;3.03;;;;;;;;;;5033215;28;20375;-86
2022/06/08 08:42:27;;;;;;;4.38;2.78;;;;;;;;;;5036531;28;20379;-86
2022/06/08 08:44:56;;;;;;;2.83;2.40;;;;;;;;;;5036012;28;20466;-88
2022/06/08 08:47:38;;;;;;;4.22;3.28;;;;;;;;;;5032432;28;20435;-87
2022/06/08 08:50:24;;;;;;;4.30;3.40;;;;;;;;;;5053110;28;20378;-87
2022/06/08 08:52:52;;;;;;;7.10;4.05;;;;;;;;;;5028162;28;20766;-88
2022/06/08 08:55:44;;;;;;;5.20;3.40;;;;;;;;;;5040920;28;20411;-87
2022/06/08 08:58:15;;;;;;;6.43;3.97;;;;;;;;;;5037528;28;20385;-87
2022/06/08 09:00:48;;;;;;;4.57;3.35;;;;;;;;;;5049470;28;20720;-87
2022/06/08 09:03:23;;;;;;;5.90;4.15;;;;;;;;;;5051785;28;20385;-86
2022/06/08 09:05:51;;;;;;;4.80;4.30;;;;;;;;;;5053142;28;20390;-87
2022/06/08 09:08:19;;;;;;;5.85;4.00;;;;;;;;;;5052968;28;20447;-89
2022/06/08 09:10:45;;;;;;;4.03;3.35;;;;;;;;;;5053726;28;20373;-87
2022/06/08 09:13:23;;;;;;;4.90;2.45;;;;;;;;;;5052356;28;20431;-88
2022/06/08 09:15:51;;;;;;;5.50;2.50;;;;;;;;;;5045189;28;20419;-88
2022/06/08 09:18:22;;;;;;;3.65;2.05;;;;;;;;;;5052085;28;20389;-89
2022/06/08 09:20:48;;;;;;;4.95;2.33;;;;;;;;;;5026231;28;20391;-90
2022/06/08 09:23:33;;;;;;;4.03;2.20;;;;;;;;;;5052900;28;20862;-89
2022/06/08 09:26:04;;;;;;;2.90;2.08;;;;;;;;;;5053256;28;20423;-88
2022/06/08 09:28:32;;;;;;;3.13;1.80;;;;;;;;;;5052900;28;20388;-89
2022/06/08 09:30:59;;;;;;;3.58;1.90;;;;;;;;;;5052733;28;20385;-88
2022/06/08 09:33:24;;;;;;;3.33;1.70;;;;;;;;;;5054026;28;20735;-89
2022/06/08 09:35:55;;;;;;;3.50;1.60;;;;;;;;;;5038212;28;20486;-87
2022/06/08 09:38:23;;;;;;;2.13;1.48;;;;;;;;;;5053388;28;20378;-85
2022/06/08 09:40:52;;;;;;;5.03;1.90;;;;;;;;;;5049673;28;20385;-85
2022/06/08 09:43:30;;;;;;;3.10;1.47;;;;;;;;;;5052403;28;20380;-86
2022/06/08 09:46:17;;;;;;;3.00;1.42;;;;;;;;;;5051123;28;20374;-86
2022/06/08 09:51:45;;;;;;;3.33;1.30;;;;;;;;;;5053113;28;20412;-85
2022/06/08 09:54:15;;;;;;;3.28;1.40;;;;;;;;;;5052398;28;20385;-86
2022/06/08 09:56:44;;;;;;;2.65;1.42;;;;;;;;;;5052877;28;20966;-85
2022/06/08 09:59:23;;;;;;;2.63;1.10;;;;;;;;;;5052685;28;20377;-85
2022/06/08 10:01:54;;;;;;;3.75;1.58;;;;;;;;;;5052787;28;20384;-86
2022/06/08 10:04:43;;;;;;;2.67;1.10;;;;;;;;;;5052702;28;20405;-85
2022/06/08 10:07:15;;;;;;;5.60;1.30;;;;;;;;;;5052719;28;20942;-85
2022/06/08 10:10:00;;;;;;;3.35;1.20;;;;;;;;;;5052525;28;20475;-86
2022/06/08 10:12:32;;;;;;;2.70;1.25;;;;;;;;;;5052535;28;20901;-85
2022/06/08 10:15:04;;;;;;;1.73;0.90;;;;;;;;;;5054978;28;20472;-85
2022/06/08 10:17:40;;;;;;;2.60;1.43;;;;;;;;;;5056718;28;20402;-86
2022/06/08 10:20:12;;;;;;;6.38;3.50;;;;;;;;;;5056483;28;20377;-85
2022/06/08 10:22:42;;;;;;;3.40;1.40;;;;;;;;;;5056797;28;20722;-86
2022/06/08 10:25:20;;;;;;;4.55;1.73;;;;;;;;;;5038721;28;20405;-86
2022/06/08 10:27:54;;;;;;;3.43;1.17;;;;;;;;;;5056273;28;20381;-86
2022/06/08 10:30:33;;;;;;;1.83;1.05;;;;;;;;;;5056272;28;20373;-86
2022/06/08 10:33:05;;;;;;;2.17;1.05;;;;;;;;;;5054299;28;20377;-86
2022/06/08 10:35:35;;;;;;;2.45;1.10;;;;;;;;;;5050639;28;20512;-87
2022/06/08 10:38:02;;;;;;;2.20;1.20;;;;;;;;;;5056523;28;20396;-88
2022/06/08 10:40:36;;;;;;;2.23;1.00;;;;;;;;;;5056117;28;20877;-87
2022/06/08 10:43:03;;;;;;;4.00;1.30;;;;;;;;;;5036275;28;20735;-87
2022/06/08 10:45:56;;;;;;;1.70;0.80;;;;;;;;;;5050565;28;20389;-87
2022/06/08 10:48:22;;;;;;;3.22;1.95;;;;;;;;;;5041532;28;20389;-88
2022/06/08 10:50:49;;;;;;;3.35;2.15;;;;;;;;;;5046542;28;20874;-89
2022/06/08 10:56:23;;;;;;;2.70;1.40;;;;;;;;;;5056481;28;20470;-87
2022/06/08 10:58:55;;;;;;;1.90;1.25;;;;;;;;;;5062892;28;20415;-87
2022/06/08 11:01:29;;;;;;;2.20;1.00;;;;;;;;;;5050608;28;20407;-87
2022/06/08 11:03:56;;;;;;;2.38;0.80;;;;;;;;;;5048588;28;20389;-88
2022/06/08 11:06:41;;;;;;;2.25;0.95;;;;;;;;;;5056201;28;20396;-87
2022/06/08 11:09:10;;;;;;;1.75;0.75;;;;;;;;;;5055394;28;20384;-86
2022/06/08 11:11:41;;;;;;;1.48;0.80;;;;;;;;;;5056039;28;20389;-87
2022/06/08 11:14:25;;;;;;;1.98;0.90;;;;;;;;;;5054988;28;20411;-88
2022/06/08 11:16:52;;;;;;;2.90;0.82;;;;;;;;;;5055625;28;20906;-88
2022/06/08 11:19:18;;;;;;;1.95;1.00;;;;;;;;;;5049955;28;20377;-88
2022/06/08 11:21:51;;;;;;;2.50;0.82;;;;;;;;;;5045522;28;20374;-88
2022/06/08 11:24:27;;;;;;;2.75;0.90;;;;;;;;;;5056250;28;20389;-88
2022/06/08 11:27:14;;;;;;;2.80;0.90;;;;;;;;;;5036403;28;20385;-89
2022/06/08 11:29:53;;;;;;;1.65;0.85;;;;;;;;;;5055151;28;20416;-88
2022/06/08 11:32:26;;;;;;;1.48;0.68;;;;;;;;;;5041682;28;20470;-87
2022/06/08 11:34:55;;;;;;;1.73;0.75;;;;;;;;;;5046012;28;20393;-87
2022/06/08 11:37:27;;;;;;;1.90;0.80;;;;;;;;;;5047163;28;20391;-89
2022/06/08 11:40:19;;;;;;;2.28;0.80;;;;;;;;;;5036909;28;20938;-89
2022/06/08 11:42:54;;;;;;;2.55;0.90;;;;;;;;;;5050874;28;20393;-89
2022/06/08 11:45:22;;;;;;;3.03;0.85;;;;;;;;;;5048476;28;20384;-89
2022/06/08 11:48:07;;;;;;;2.13;1.10;;;;;;;;;;5049628;28;20385;-88
2022/06/08 11:50:52;;;;;;;2.00;0.70;;;;;;;;;;5054186;28;20409;-89
2022/06/08 11:53:29;;;;;;;1.83;0.50;;;;;;;;;;5053790;28;20447;-89
2022/06/08 11:56:13;;;;;;;1.77;0.70;;;;;;;;;;5051392;28;20902;-90
2022/06/08 11:58:45;;;;;;;1.63;0.70;;;;;;;;;;5053926;28;20369;-89
2022/06/08 12:01:16;;;;;;;3.00;0.80;;;;;;;;;;5036838;28;20893;-89
2022/06/08 12:03:44;;;;;;;1.40;0.70;;;;;;;;;;5053912;28;20870;-89
2022/06/08 12:06:18;;;;;;;1.40;0.57;;;;;;;;;;5054463;28;20393;-88
2022/06/08 12:08:46;;;;;;;2.15;0.80;;;;;;;;;;5052569;28;20858;-89
2022/06/08 12:11:14;;;;;;;3.17;0.85;;;;;;;;;;5050114;28;20377;-90
2022/06/08 12:13:41;;;;;;;1.67;0.73;;;;;;;;;;5054021;28;20976;-89
2022/06/08 12:16:25;;;;;;;1.10;0.60;;;;;;;;;;5036145;28;20898;-90
2022/06/08 12:19:01;;;;;;;2.70;0.70;;;;;;;;;;5054694;28;20389;-88
2022/06/08 12:21:30;;;;;;;2.80;0.73;;;;;;;;;;5043718;28;20421;-90
2022/06/08 12:24:19;;;;;;;1.90;0.70;;;;;;;;;;5051989;28;20724;-88
2022/06/08 12:26:54;;;;;;;1.38;0.60;;;;;;;;;;5047136;28;20390;-90
2022/06/08 12:29:39;;;;;;;2.95;0.70;;;;;;;;;;5040046;28;20443;-87
2022/06/08 12:32:08;;;;;;;1.70;0.70;;;;;;;;;;5053511;28;20373;-87
2022/06/08 12:34:43;;;;;;;1.30;0.70;;;;;;;;;;5051762;28;20464;-89
2022/06/08 12:37:33;;;;;;;1.92;0.80;;;;;;;;;;5052348;28;20467;-89
2022/06/08 12:40:17;;;;;;;2.22;1.00;;;;;;;;;;5025508;28;20391;-89
2022/06/08 12:43:02;;;;;;;2.15;0.70;;;;;;;;;;5035631;28;20389;-90
2022/06/08 12:45:33;;;;;;;2.13;0.90;;;;;;;;;;5033344;28;20460;-89
2022/06/08 12:47:59;;;;;;;3.73;0.97;;;;;;;;;;5038061;28;20390;-88
2022/06/08 12:50:30;;;;;;;2.35;0.90;;;;;;;;;;5040682;28;20410;-88
2022/06/08 12:53:02;;;;;;;1.50;0.80;;;;;;;;;;5033396;28;22113;-89
2022/06/08 12:55:28;;;;;;;1.92;0.90;;;;;;;;;;5052675;28;20901;-89
2022/06/08 12:57:54;;;;;;;1.40;0.90;;;;;;;;;;5024670;28;20390;-90
2022/06/08 13:00:22;;;;;;;2.05;0.63;;;;;;;;;;5037182;28;20389;-89
2022/06/08 13:02:50;;;;;;;2.03;0.77;;;;;;;;;;5038156;28;20391;-89
2022/06/08 13:05:21;;;;;;;3.42;0.82;;;;;;;;;;5031703;28;20382;-90
2022/06/08 13:07:47;;;;;;;2.83;0.70;;;;;;;;;;5033867;28;20376;-89
2022/06/08 13:10:14;;;;;;;1.58;0.65;;;;;;;;;;5049553;28;20385;-89
2022/06/08 13:12:47;;;;;;;3.25;1.10;;;;;;;;;;5042259;28;20441;-89
2022/06/08 13:15:16;;;;;;;2.47;1.00;;;;;;;;;;5034701;28;20887;-89
2022/06/08 13:17:42;;;;;;;1.50;1.02;;;;;;;;;;5049088;28;20882;-89
2022/06/08 13:20:17;;;;;;;2.73;1.00;;;;;;;;;;5040356;28;20399;-90
2022/06/08 13:22:43;;;;;;;2.08;0.88;;;;;;;;;;5047920;28;20399;-89
2022/06/08 13:25:10;;;;;;;2.63;1.00;;;;;;;;;;5049871;28;20409;-90
2022/06/08 13:27:36;;;;;;;2.88;0.80;;;;;;;;;;5040814;28;20511;-89
2022/06/08 13:30:02;;;;;;;3.33;0.95;;;;;;;;;;5026662;28;20382;-89
2022/06/08 13:32:29;;;;;;;3.60;1.10;;;;;;;;;;5033547;28;20381;-89
2022/06/08 13:34:54;;;;;;;2.17;0.88;;;;;;;;;;5040074;28;20383;-89
2022/06/08 13:37:39;;;;;;;1.10;0.65;;;;;;;;;;5031529;28;20817;-89
2022/06/08 13:40:25;;;;;;;2.22;0.80;;;;;;;;;;5031146;28;20379;-89
2022/06/08 13:42:52;;;;;;;1.55;0.70;;;;;;;;;;5029258;28;20377;-89
2022/06/08 13:45:30;;;;;;;2.97;0.65;;;;;;;;;;5036355;28;20387;-89
2022/06/08 13:47:58;;;;;;;2.20;0.68;;;;;;;;;;5043602;28;20371;-88
2022/06/08 13:50:27;;;;;;;2.05;0.70;;;;;;;;;;5033214;28;20458;-89
2022/06/08 13:52:54;;;;;;;2.55;0.52;;;;;;;;;;5033208;28;20958;-88
2022/06/08 13:55:23;;;;;;;1.20;0.50;;;;;;;;;;5034342;28;20375;-88
2022/06/08 13:57:50;;;;;;;1.53;0.70;;;;;;;;;;5033467;28;20390;-89
2022/06/08 14:00:16;;;;;;;2.05;0.90;;;;;;;;;;5032766;28;20390;-89
2022/06/08 14:02:46;;;;;;;2.47;0.90;;;;;;;;;;5054853;28;20378;-89
2022/06/08 14:05:14;;;;;;;2.10;0.70;;;;;;;;;;5046350;28;20740;-89
2022/06/08 14:13:20;;;;;;;2.50;0.80;;;;;;;;;;5039107;28;20414;-88
2022/06/08 14:15:48;;;;;;;1.70;0.80;;;;;;;;;;5035087;28;21065;-88
2022/06/08 14:18:28;;;;;;;3.30;0.90;;;;;;;;;;5031126;28;20397;-89
2022/06/08 14:20:54;;;;;;;1.70;0.80;;;;;;;;;;5035158;28;20371;-87
2022/06/08 14:23:20;;;;;;;3.30;1.20;;;;;;;;;;5031570;28;20384;-89
2022/06/08 14:25:47;;;;;;;3.40;1.10;;;;;;;;;;5031842;28;20390;-88
2022/06/08 14:28:14;;;;;;;5.60;1.20;;;;;;;;;;5035993;28;20383;-88
2022/06/08 14:30:42;;;;;;;5.70;1.30;;;;;;;;;;5035474;28;20386;-88
2022/06/08 14:33:15;;;;;;;1.95;1.10;;;;;;;;;;5046752;28;20734;-88
2022/06/08 14:35:43;;;;;;;3.00;1.20;;;;;;;;;;5038769;28;20465;-88
2022/06/08 14:38:14;;;;;;;2.22;1.17;;;;;;;;;;5045631;28;20374;-89
2022/06/08 14:40:41;;;;;;;2.23;1.10;;;;;;;;;;5037779;28;20382;-89
2022/06/08 14:43:07;;;;;;;2.95;1.20;;;;;;;;;;5041496;28;20375;-89
2022/06/08 14:45:35;;;;;;;3.17;1.20;;;;;;;;;;5031709;28;20470;-88
2022/06/08 14:48:01;;;;;;;3.03;1.23;;;;;;;;;;5036400;28;20379;-88
2022/06/08 14:50:30;;;;;;;3.40;1.40;;;;;;;;;;5041586;28;20398;-89
2022/06/08 14:52:57;;;;;;;2.83;1.23;;;;;;;;;;5030902;28;20386;-89
2022/06/08 14:58:11;;;;;;;3.17;1.42;;;;;;;;;;5052793;28;20396;-88
2022/06/08 15:00:37;;;;;;;2.55;1.60;;;;;;;;;;5053263;28;20416;-89
2022/06/08 15:03:04;;;;;;;4.53;1.55;;;;;;;;;;5056027;28;20418;-89
2022/06/08 15:05:31;;;;;;;2.90;1.40;;;;;;;;;;5055602;28;20384;-88
2022/06/08 15:07:57;;;;;;;2.38;1.48;;;;;;;;;;5055985;28;20381;-87
2022/06/08 15:10:23;;;;;;;3.05;1.63;;;;;;;;;;5040836;28;20377;-88
2022/06/08 15:12:51;;;;;;;2.67;1.20;;;;;;;;;;5035845;28;20387;-88
2022/06/08 15:15:22;;;;;;;2.85;1.15;;;;;;;;;;5047988;28;20384;-86
2022/06/08 15:17:49;;;;;;;2.53;1.08;;;;;;;;;;5050436;28;20377;-88
2022/06/08 15:20:18;;;;;;;2.88;1.00;;;;;;;;;;5055494;28;20369;-87